createdAt,value
2022-09-21T02:04:05.059Z,1000.26
2022-09-21T02:04:51.909Z,1000.25
2022-09-21T03:25:48.159Z,1000.35
2022-09-21T03:26:47.997Z,1000.36
2022-09-21T03:36:22.332Z,1000.35
2022-09-21T03:37:09.109Z,1000.36
2022-09-21T04:12:12.010Z,1000.55
2022-09-21T04:13:11.862Z,1000.58
2022-09-21T04:17:04.297Z,1000.56
2022-09-21T04:17:54.285Z,1000.52
2022-09-21T04:20:11.310Z,1000.59
2022-09-21T04:21:11.190Z,1000.61
2022-09-21T05:19:35.430Z,1000.83
2022-09-21T05:20:35.245Z,1000.81
2022-09-21T14:00:30.443Z,1000.84
2022-09-21T14:01:53.837Z,1000.86
2022-09-21T14:02:26.028Z,1000.83
2022-09-21T14:03:25.858Z,1000.85
2022-09-21T14:04:25.773Z,1000.78
2022-09-21T14:05:25.690Z,1000.81
2022-09-21T14:06:25.604Z,1000.76
2022-09-21T14:07:25.523Z,1000.77
2022-09-21T14:08:25.436Z,1000.77
2022-09-21T14:09:25.346Z,1000.80
2022-09-21T14:10:25.258Z,1000.77
2022-09-21T14:11:25.173Z,1000.75
2022-09-21T14:12:25.100Z,1000.78
2022-09-21T14:13:25.011Z,1000.75
2022-09-21T14:14:24.921Z,1000.77
2022-09-21T14:15:24.835Z,1000.76
2022-09-21T14:16:24.865Z,1000.73
2022-09-21T14:17:25.619Z,1000.73
2022-09-21T14:18:24.585Z,1000.74
2022-09-21T14:19:24.494Z,1000.69
2022-09-21T14:20:28.090Z,1000.73
2022-09-21T14:21:24.331Z,1000.72
2022-09-21T14:22:24.242Z,1000.73
2022-09-21T14:23:24.159Z,1000.71
2022-09-21T14:24:24.071Z,1000.70
2022-09-21T14:25:23.981Z,1000.68
2022-09-21T14:26:26.379Z,1000.68
2022-09-21T14:27:23.812Z,1000.71
2022-09-21T14:28:23.730Z,1000.70
2022-09-21T14:29:23.650Z,1000.68
2022-09-21T14:30:23.560Z,1000.71
2022-09-21T14:31:23.522Z,1000.68
2022-09-21T14:32:23.398Z,1000.67
2022-09-21T14:33:23.307Z,1000.66
2022-09-21T14:34:23.608Z,1000.66
2022-09-21T14:35:23.148Z,1000.67
2022-09-21T14:36:23.042Z,1000.65
2022-09-21T14:37:25.970Z,1000.64
2022-09-21T14:38:22.894Z,1000.68
2022-09-21T14:39:22.791Z,1000.59
2022-09-21T14:40:22.736Z,1000.65
2022-09-21T14:41:22.625Z,1000.63
2022-09-21T14:42:22.536Z,1000.60
2022-09-21T14:43:22.446Z,1000.62
2022-09-21T14:44:22.368Z,1000.62
2022-09-21T14:45:22.295Z,1000.64
2022-09-21T14:46:22.258Z,1000.58
2022-09-21T14:47:22.118Z,1000.62
2022-09-21T14:48:22.028Z,1000.61
2022-09-21T14:49:21.948Z,1000.62
2022-09-21T14:50:21.866Z,1000.64
2022-09-21T14:51:21.773Z,1000.60
2022-09-21T14:52:31.117Z,1000.58
2022-09-21T14:53:21.604Z,1000.59
2022-09-21T14:54:21.524Z,1000.59
2022-09-21T14:55:21.442Z,1000.57
2022-09-21T14:56:21.350Z,1000.59
2022-09-21T14:57:21.262Z,1000.58
2022-09-21T14:58:21.189Z,1000.52
2022-09-21T14:59:21.099Z,1000.52
2022-09-21T15:00:21.097Z,1000.52
2022-09-21T15:01:20.957Z,1000.56
2022-09-21T15:02:20.844Z,1000.54
2022-09-21T15:03:20.760Z,1000.59
2022-09-21T15:04:20.672Z,1000.64
2022-09-21T15:05:20.590Z,1000.62
2022-09-21T15:06:20.507Z,1000.66
2022-09-21T15:07:20.457Z,1000.69
2022-09-21T15:08:20.335Z,1000.72
2022-09-21T15:09:20.248Z,1000.76
2022-09-21T15:10:20.169Z,1000.77
2022-09-21T15:11:20.080Z,1000.61
2022-09-21T15:12:19.997Z,1000.57
2022-09-21T15:13:19.908Z,1000.53
2022-09-21T15:14:19.835Z,1000.58
2022-09-21T15:15:19.742Z,1000.75
2022-09-21T15:16:19.695Z,1000.92
2022-09-21T15:17:19.580Z,1000.97
2022-09-21T15:18:19.499Z,1001.05
2022-09-21T15:19:19.412Z,1001.05
2022-09-21T15:20:19.322Z,1001.04
2022-09-21T15:21:19.243Z,1001.04
2022-09-21T15:22:19.158Z,1001.08
2022-09-21T15:23:19.077Z,1001.06
2022-09-21T15:24:18.988Z,1001.06
2022-09-21T15:25:18.906Z,1001.08
2022-09-21T15:26:18.814Z,1001.10
2022-09-21T15:27:18.745Z,1001.08
2022-09-21T15:28:18.651Z,1001.10
2022-09-21T15:29:18.577Z,1001.06
2022-09-21T15:30:18.490Z,1001.07
2022-09-21T15:31:18.431Z,1001.08
2022-09-21T15:32:18.332Z,1001.09
2022-09-21T15:33:21.034Z,1001.03
2022-09-21T15:34:18.159Z,1001.05
2022-09-21T15:35:18.076Z,1001.09
2022-09-21T15:36:17.994Z,1001.13
2022-09-21T15:37:17.919Z,1001.07
2022-09-21T15:38:17.840Z,1001.14
2022-09-21T15:39:17.759Z,1001.12
2022-09-21T15:40:17.723Z,1001.14
2022-09-21T15:41:17.589Z,1001.17
2022-09-21T15:42:17.512Z,1001.18
2022-09-21T15:43:17.427Z,1001.16
2022-09-21T15:44:17.348Z,1001.08
2022-09-21T15:45:17.271Z,1000.89
2022-09-21T15:46:17.229Z,1000.68
2022-09-21T15:47:17.103Z,1000.61
2022-09-21T15:48:17.031Z,1000.64
2022-09-21T15:49:16.942Z,1000.76
2022-09-21T15:50:16.871Z,1000.66
2022-09-21T15:51:16.782Z,1000.56
2022-09-21T15:52:16.706Z,1000.52
2022-09-21T15:53:16.613Z,1000.47
2022-09-21T15:54:16.537Z,1000.47
2022-09-21T15:55:16.459Z,1000.58
2022-09-21T15:56:16.375Z,1000.44
2022-09-21T15:57:16.296Z,1000.45
2022-09-21T15:58:16.214Z,1000.45
2022-09-21T15:59:16.130Z,1000.48
2022-09-21T16:00:16.052Z,1000.46
2022-09-21T16:01:16.048Z,1000.43
2022-09-21T16:02:15.881Z,1000.49
2022-09-21T16:03:15.803Z,1000.50
2022-09-21T16:04:15.770Z,1000.46
2022-09-21T16:05:15.628Z,1000.44
2022-09-21T16:06:15.560Z,1000.49
2022-09-21T16:07:15.464Z,1000.52
2022-09-21T16:08:15.386Z,1000.44
2022-09-21T16:09:15.299Z,1000.41
2022-09-21T16:10:15.223Z,1000.38
2022-09-21T16:11:15.145Z,1000.42
2022-09-21T16:12:15.051Z,1000.42
2022-09-21T16:13:14.984Z,1000.43
2022-09-21T16:14:14.905Z,1000.42
2022-09-21T16:15:14.800Z,1000.43
2022-09-21T16:16:14.761Z,1000.42
2022-09-21T16:17:14.633Z,1000.39
2022-09-21T16:18:14.551Z,1000.41
2022-09-21T16:19:14.463Z,1000.42
2022-09-21T16:20:14.375Z,1000.37
2022-09-21T16:21:14.299Z,1000.40
2022-09-21T16:22:14.217Z,1000.40
2022-09-21T16:23:14.124Z,1000.42
2022-09-21T16:24:14.048Z,1000.41
2022-09-21T16:25:13.960Z,1000.45
2022-09-21T16:26:13.882Z,1000.41
2022-09-21T16:27:13.789Z,1000.42
2022-09-21T16:28:13.703Z,1000.46
2022-09-21T16:29:13.618Z,1000.42
2022-09-21T16:30:13.534Z,1000.38
2022-09-21T16:31:13.503Z,1000.44
2022-09-21T16:32:13.361Z,1000.41
2022-09-21T16:33:13.281Z,1000.38
2022-09-21T16:34:13.191Z,1000.41
2022-09-21T16:35:13.106Z,1000.43
2022-09-21T16:36:13.026Z,1000.43
2022-09-21T16:37:12.941Z,1000.43
2022-09-21T16:38:12.854Z,1000.44
2022-09-21T16:39:15.266Z,1000.41
2022-09-21T16:40:12.719Z,1000.43
2022-09-21T16:41:12.599Z,1000.47
2022-09-21T16:42:12.504Z,1000.42
2022-09-21T16:43:12.427Z,1000.44
2022-09-21T16:44:12.341Z,1000.42
2022-09-21T16:45:12.255Z,1000.47
2022-09-21T16:46:12.211Z,1000.44
2022-09-21T16:47:12.086Z,1000.44
2022-09-21T16:48:11.999Z,1000.40
2022-09-21T16:49:11.910Z,1000.38
2022-09-21T16:50:11.825Z,1000.38
2022-09-21T16:51:11.744Z,1000.39
2022-09-21T16:52:11.655Z,1000.35
2022-09-21T16:53:11.572Z,1000.35
2022-09-21T16:54:11.490Z,1000.36
2022-09-21T16:55:11.398Z,1000.38
2022-09-21T16:56:11.312Z,1000.35
2022-09-21T16:57:11.229Z,1000.39
2022-09-21T16:58:11.147Z,1000.38
2022-09-21T16:59:11.053Z,1000.39
2022-09-21T17:00:10.972Z,1000.44
2022-09-21T17:01:10.904Z,1000.40
2022-09-21T17:02:10.839Z,1000.45
2022-09-21T17:03:10.709Z,1000.41
2022-09-21T17:04:10.626Z,1000.40
2022-09-21T17:05:10.537Z,1000.42
2022-09-21T17:06:10.453Z,1000.41
2022-09-21T17:07:10.367Z,1000.42
2022-09-21T17:08:10.281Z,1000.47
2022-09-21T17:09:10.190Z,1000.46
2022-09-21T17:10:10.104Z,1000.46
2022-09-21T17:11:10.022Z,1000.47
2022-09-21T17:12:09.934Z,1000.44
2022-09-21T17:13:09.848Z,1000.47
2022-09-21T17:14:09.761Z,1000.44
2022-09-21T17:15:09.674Z,1000.45
2022-09-21T17:16:09.646Z,1000.43
2022-09-21T17:17:09.499Z,1000.45
2022-09-21T17:18:09.419Z,1000.43
2022-09-21T17:19:09.332Z,1000.46
2022-09-21T17:20:09.246Z,1000.49
2022-09-21T17:21:09.158Z,1000.48
2022-09-21T17:22:09.063Z,1000.47
2022-09-21T17:23:08.986Z,1000.49
2022-09-21T17:24:08.896Z,1000.48
2022-09-21T17:25:08.807Z,1000.49
2022-09-21T17:26:08.723Z,1000.51
2022-09-21T17:27:08.636Z,1000.50
2022-09-21T17:28:08.551Z,1000.49
2022-09-21T17:29:08.499Z,1000.47
2022-09-21T17:30:08.373Z,1000.51
2022-09-21T17:31:08.346Z,1000.50
2022-09-21T17:32:08.204Z,1000.52
2022-09-21T17:33:08.118Z,1000.50
2022-09-21T17:34:08.028Z,1000.52
2022-09-21T17:35:07.940Z,1000.54
2022-09-21T17:36:07.862Z,1000.51
2022-09-21T17:37:07.766Z,1000.53
2022-09-21T17:38:10.130Z,1000.52
2022-09-21T17:39:07.592Z,1000.49
2022-09-21T17:40:10.940Z,1000.51
2022-09-21T17:41:07.417Z,1000.48
2022-09-21T17:42:07.330Z,1000.52
2022-09-21T17:43:07.247Z,1000.48
2022-09-21T17:44:07.155Z,1000.52
2022-09-21T17:45:07.068Z,1000.50
2022-09-21T17:46:07.055Z,1000.50
2022-09-21T17:47:06.894Z,1000.55
2022-09-21T17:48:06.810Z,1000.57
2022-09-21T17:49:06.718Z,1000.60
2022-09-21T17:50:06.632Z,1000.59
2022-09-21T17:51:06.546Z,1000.62
2022-09-21T17:52:06.456Z,1000.64
2022-09-21T17:53:06.370Z,1000.65
2022-09-21T17:54:06.418Z,1000.62
2022-09-21T17:55:06.196Z,1000.61
2022-09-21T17:56:06.106Z,1000.62
2022-09-21T17:57:06.018Z,1000.63
2022-09-21T17:58:05.933Z,1000.64
2022-09-21T17:59:05.845Z,1000.68
2022-09-21T18:00:05.756Z,1000.66
2022-09-21T18:01:05.670Z,1000.66
2022-09-21T18:02:07.664Z,1000.64
2022-09-21T18:03:05.602Z,1000.66
2022-09-21T18:04:05.403Z,1000.67
2022-09-21T18:05:05.316Z,1000.67
2022-09-21T18:06:05.235Z,1000.69
2022-09-21T18:07:05.139Z,1000.67
2022-09-21T18:08:05.054Z,1000.68
2022-09-21T18:09:05.086Z,1000.65
2022-09-21T18:10:04.877Z,1000.66
2022-09-21T18:11:04.793Z,1000.66
2022-09-21T18:12:04.701Z,1000.64
2022-09-21T18:13:04.615Z,1000.65
2022-09-21T18:14:04.529Z,1000.68
2022-09-21T18:15:04.438Z,1000.68
2022-09-21T18:16:04.411Z,1000.68
2022-09-21T18:17:04.260Z,1000.68
2022-09-21T18:18:04.171Z,1000.68
2022-09-21T18:19:04.081Z,1000.69
2022-09-21T18:20:03.992Z,1000.69
2022-09-21T18:21:03.911Z,1000.64
2022-09-21T18:22:03.821Z,1000.70
2022-09-21T18:23:03.735Z,1000.64
2022-09-21T18:24:03.651Z,1000.65
2022-09-21T18:25:03.555Z,1000.64
2022-09-21T18:26:03.464Z,1000.65
2022-09-21T18:27:03.372Z,1000.62
2022-09-21T18:28:03.288Z,1000.65
2022-09-21T18:29:17.241Z,1000.65
2022-09-21T18:30:03.108Z,1000.65
2022-09-21T18:31:03.097Z,1000.65
2022-09-21T18:32:02.932Z,1000.67
2022-09-21T18:33:02.846Z,1000.69
2022-09-21T18:34:02.768Z,1000.67
2022-09-21T18:35:02.666Z,1000.66
2022-09-21T18:36:02.575Z,1000.66
2022-09-21T18:37:02.508Z,1000.66
2022-09-21T18:38:02.419Z,1000.67
2022-09-21T18:39:02.318Z,1000.65
2022-09-21T18:40:02.303Z,1000.71
2022-09-21T18:41:02.136Z,1000.64
2022-09-21T18:42:02.051Z,1000.71
2022-09-21T18:43:01.961Z,1000.70
2022-09-21T18:44:01.877Z,1000.73
2022-09-21T18:45:01.785Z,1000.67
2022-09-21T18:46:01.784Z,1000.74
2022-09-21T18:47:01.622Z,1000.70
2022-09-21T18:48:01.505Z,1000.70
2022-09-21T18:49:01.428Z,1000.71
2022-09-21T18:50:01.335Z,1000.75
2022-09-21T18:51:01.254Z,1000.75
2022-09-21T18:52:01.161Z,1000.79
2022-09-21T18:53:01.072Z,1000.77
2022-09-21T18:54:00.986Z,1000.79
2022-09-21T18:55:00.887Z,1000.77
2022-09-21T18:56:00.799Z,1000.79
2022-09-21T18:57:00.702Z,1000.79
2022-09-21T18:58:00.622Z,1000.81
2022-09-21T18:59:00.530Z,1000.81
2022-09-21T19:00:00.457Z,1000.78
2022-09-21T19:01:00.366Z,1000.76
2022-09-21T19:02:00.384Z,1000.79
2022-09-21T19:03:16.598Z,1000.75
2022-09-21T19:04:00.092Z,1000.78
2022-09-21T19:04:59.996Z,1000.79
2022-09-21T19:05:59.929Z,1000.74
2022-09-21T19:06:59.817Z,1000.77
2022-09-21T19:07:59.744Z,1000.73
2022-09-21T19:08:59.635Z,1000.73
2022-09-21T19:09:59.557Z,1000.74
2022-09-21T19:10:59.454Z,1000.71
2022-09-21T19:11:59.379Z,1000.76
2022-09-21T19:12:59.282Z,1000.75
2022-09-21T19:13:59.187Z,1000.75
2022-09-21T19:14:59.102Z,1000.70
2022-09-21T19:16:01.523Z,1000.72
2022-09-21T19:16:58.924Z,1000.69
2022-09-21T19:17:58.853Z,1000.71
2022-09-21T19:18:58.758Z,1000.72
2022-09-21T19:19:58.660Z,1000.73
2022-09-21T19:20:58.562Z,1000.66
2022-09-21T19:21:58.496Z,1000.67
2022-09-21T19:22:58.403Z,1000.69
2022-09-21T19:23:58.335Z,1000.67
2022-09-21T19:24:58.217Z,1000.69
2022-09-21T19:25:58.119Z,1000.73
2022-09-21T19:26:58.025Z,1000.69
2022-09-21T19:27:57.937Z,1000.72
2022-09-21T19:28:57.843Z,1000.72
2022-09-21T19:29:57.757Z,1000.74
2022-09-21T19:31:00.368Z,1000.73
2022-09-21T19:31:57.579Z,1000.73
2022-09-21T19:32:57.508Z,1000.73
2022-09-21T19:33:57.401Z,1000.69
2022-09-21T19:34:57.311Z,1000.69
2022-09-21T19:35:57.221Z,1000.67
2022-09-21T19:36:57.128Z,1000.68
2022-09-21T19:37:57.040Z,1000.69
2022-09-21T19:38:57.044Z,1000.67
2022-09-21T19:39:56.859Z,1000.72
2022-09-21T19:40:56.767Z,1000.69
2022-09-21T19:41:56.679Z,1000.68
2022-09-21T19:42:56.593Z,1000.69
2022-09-21T19:43:56.498Z,1000.65
2022-09-21T19:44:56.435Z,1000.66
2022-09-21T19:45:56.349Z,1000.66
2022-09-21T19:46:56.232Z,1000.63
2022-09-21T19:47:56.138Z,1000.64
2022-09-21T19:48:56.054Z,1000.62
2022-09-21T19:49:55.959Z,1000.59
2022-09-21T19:50:55.875Z,1000.57
2022-09-21T19:51:55.780Z,1000.60
2022-09-21T19:52:55.684Z,1000.62
2022-09-21T19:53:55.602Z,1000.62
2022-09-21T19:54:55.525Z,1000.61
2022-09-21T19:55:55.458Z,1000.66
2022-09-21T19:56:55.705Z,1000.60
2022-09-21T19:57:55.244Z,1000.62
2022-09-21T19:58:55.152Z,1000.61
2022-09-21T19:59:55.070Z,1000.57
2022-09-21T20:00:54.969Z,1000.67
2022-09-21T20:01:54.974Z,1000.67
2022-09-21T20:25:22.019Z,1000.74
2022-09-21T20:26:21.874Z,1000.72
2022-09-21T20:29:46.787Z,1000.70
2022-09-21T20:30:44.363Z,1000.70
2022-09-21T20:33:05.692Z,1000.72
2022-09-21T20:34:05.578Z,1000.73
2022-09-21T20:37:24.121Z,1000.69
2022-09-21T20:38:18.009Z,1000.68
2022-09-21T20:40:26.986Z,1000.64
2022-09-21T20:41:26.788Z,1000.63
2022-09-21T20:46:27.034Z,1000.61
2022-09-21T20:47:19.162Z,1000.62
2022-09-21T20:51:01.786Z,1000.63
2022-09-21T20:51:51.587Z,1000.61
2022-09-21T20:53:55.965Z,1000.64
2022-09-21T20:54:55.793Z,1000.65
2022-09-21T20:56:59.331Z,1000.65
2022-09-21T20:57:59.206Z,1000.66
2022-09-21T21:52:07.416Z,1000.59
2022-09-21T21:52:59.674Z,1000.62
2022-09-21T21:58:07.732Z,1000.66
2022-09-21T21:58:52.066Z,1000.66
2022-09-21T22:00:58.866Z,1000.63
2022-09-21T22:01:58.741Z,1000.66
2022-09-21T22:12:22.130Z,1000.63
2022-09-21T22:13:09.801Z,1000.65
2022-09-21T22:46:40.540Z,1000.49
2022-09-21T22:47:38.410Z,1000.51
2022-09-21T22:48:38.317Z,1000.51
2022-09-21T22:49:38.223Z,1000.52
2022-09-21T22:50:38.143Z,1000.51
2022-09-21T22:51:38.159Z,1000.47
2022-09-21T22:52:37.965Z,1000.49
2022-09-21T22:53:37.860Z,1000.47
2022-09-21T22:54:37.774Z,1000.49
2022-09-21T22:55:37.696Z,1000.49
2022-09-21T22:56:37.582Z,1000.52
2022-09-21T22:57:37.488Z,1000.49
2022-09-21T22:58:37.431Z,1000.50
2022-09-21T22:59:37.309Z,1000.52
2022-09-21T23:00:37.238Z,1000.50
2022-09-21T23:01:37.130Z,1000.45
2022-09-21T23:02:37.080Z,1000.51
2022-09-21T23:03:36.990Z,1000.51
2022-09-21T23:04:36.854Z,1000.50
2022-09-21T23:05:36.751Z,1000.47
2022-09-21T23:06:36.693Z,1000.52
2022-09-21T23:07:36.571Z,1000.50
2022-09-21T23:08:36.500Z,1000.50
2022-09-21T23:09:36.394Z,1000.46
2022-09-21T23:10:36.301Z,1000.46
2022-09-21T23:11:36.215Z,1000.47
2022-09-21T23:12:36.105Z,1000.48
2022-09-21T23:13:36.018Z,1000.45
2022-09-21T23:14:35.956Z,1000.43
2022-09-21T23:15:35.851Z,1000.40
2022-09-21T23:16:35.842Z,1000.43
2022-09-21T23:17:35.652Z,1000.41
2022-09-21T23:18:35.589Z,1000.41
2022-09-21T23:19:35.472Z,1000.39
2022-09-21T23:20:35.420Z,1000.39
2022-09-21T23:21:35.279Z,1000.35
2022-09-21T23:22:35.202Z,1000.35
2022-09-21T23:23:35.101Z,1000.36
2022-09-21T23:24:35.008Z,1000.34
2022-09-21T23:25:34.911Z,1000.34
2022-09-21T23:26:34.836Z,1000.33
2022-09-21T23:27:34.773Z,1000.32
2022-09-21T23:28:34.645Z,1000.38
2022-09-21T23:29:34.571Z,1000.32
2022-09-21T23:30:34.478Z,1000.33
2022-09-21T23:31:34.382Z,1000.32
2022-09-21T23:32:34.268Z,1000.34
2022-09-21T23:33:34.193Z,1000.30
2022-09-21T23:34:34.086Z,1000.29
2022-09-21T23:35:33.999Z,1000.26
2022-09-21T23:36:33.943Z,1000.28
2022-09-21T23:37:33.836Z,1000.27
2022-09-21T23:38:33.717Z,1000.23
2022-09-21T23:39:33.651Z,1000.19
2022-09-21T23:40:33.577Z,1000.23
2022-09-21T23:41:33.442Z,1000.19
2022-09-21T23:42:33.371Z,1000.21
2022-09-21T23:43:33.267Z,1000.18
2022-09-21T23:44:33.163Z,1000.16
2022-09-21T23:45:33.097Z,1000.17
2022-09-21T23:46:33.050Z,1000.15
2022-09-21T23:47:32.885Z,1000.16
2022-09-21T23:48:32.801Z,1000.13
2022-09-21T23:49:32.716Z,1000.14
2022-09-21T23:50:32.655Z,1000.13
2022-09-21T23:51:32.516Z,1000.10
2022-09-21T23:52:32.427Z,1000.12
2022-09-21T23:53:32.351Z,1000.08
2022-09-21T23:54:32.267Z,1000.09
2022-09-21T23:55:32.153Z,1000.07
2022-09-21T23:56:32.061Z,1000.07
2022-09-21T23:57:31.984Z,1000.09
2022-09-21T23:58:31.883Z,1000.08
2022-09-21T23:59:31.814Z,1000.07
